Time;durP1;ratioP1;P1;durP2;ratioP2;P2;SDS_P1;SDS_P2;PMS_P1;PMS_P2;Temp;Humidity;BMP_temperature;BMP_pressure;BME280_temperature;BME280_humidity;BME280_pressure;Samples;Min_cycle;Max_cycle;Signal;HPM_P1;HPM_P2
2022/08/29 00:01:35;;;;;;;3.22;2.15;;;;;;;;;;5008312;28;20034;-69
2022/08/29 00:04:01;;;;;;;4.13;2.50;;;;;;;;;;5008665;28;20029;-69
2022/08/29 00:06:27;;;;;;;4.32;2.28;;;;;;;;;;5008650;28;20122;-70
2022/08/29 00:08:52;;;;;;;5.22;2.13;;;;;;;;;;5008210;28;20108;-70
2022/08/29 00:11:18;;;;;;;4.05;2.25;;;;;;;;;;5008548;28;20034;-70
2022/08/29 00:13:44;;;;;;;2.90;2.00;;;;;;;;;;5008218;28;20037;-69
2022/08/29 00:16:10;;;;;;;4.28;2.15;;;;;;;;;;5008054;28;20026;-68
2022/08/29 00:18:36;;;;;;;6.95;2.28;;;;;;;;;;5008291;28;20037;-71
2022/08/29 00:21:02;;;;;;;4.45;2.22;;;;;;;;;;5008389;28;20062;-69
2022/08/29 00:23:28;;;;;;;3.22;2.30;;;;;;;;;;5008350;28;20034;-68
2022/08/29 00:25:55;;;;;;;4.07;2.20;;;;;;;;;;5008501;28;20029;-70
2022/08/29 00:28:20;;;;;;;3.63;2.20;;;;;;;;;;5007894;28;20025;-69
2022/08/29 00:30:46;;;;;;;3.85;2.47;;;;;;;;;;4990531;28;20049;-69
2022/08/29 00:33:11;;;;;;;4.50;2.22;;;;;;;;;;5008187;28;20025;-68
2022/08/29 00:35:39;;;;;;;4.55;2.50;;;;;;;;;;5008112;28;20477;-68
2022/08/29 00:38:07;;;;;;;4.70;2.03;;;;;;;;;;5007788;28;20481;-70
2022/08/29 00:40:40;;;;;;;3.38;2.28;;;;;;;;;;5008113;28;20040;-70
2022/08/29 00:43:06;;;;;;;4.05;2.17;;;;;;;;;;5007831;28;20529;-68
2022/08/29 00:45:33;;;;;;;4.65;2.15;;;;;;;;;;5007866;28;20022;-71
2022/08/29 00:48:10;;;;;;;3.45;2.25;;;;;;;;;;5007927;28;20496;-70
2022/08/29 00:50:58;;;;;;;3.80;2.28;;;;;;;;;;5007867;28;20018;-70
2022/08/29 00:53:30;;;;;;;5.05;2.40;;;;;;;;;;5007831;28;20447;-71
2022/08/29 00:55:56;;;;;;;4.68;2.20;;;;;;;;;;5007803;28;20017;-71
2022/08/29 00:58:32;;;;;;;4.07;2.33;;;;;;;;;;5007701;28;20034;-70
2022/08/29 01:00:58;;;;;;;4.90;2.15;;;;;;;;;;4990226;28;20026;-70
2022/08/29 01:03:24;;;;;;;3.00;2.13;;;;;;;;;;5007763;28;20017;-70
2022/08/29 01:05:50;;;;;;;4.18;2.40;;;;;;;;;;5007611;28;20026;-70
2022/08/29 01:08:15;;;;;;;3.92;2.20;;;;;;;;;;5007420;28;20033;-68
2022/08/29 01:13:33;;;;;;;5.13;2.30;;;;;;;;;;5006863;28;20071;-70
2022/08/29 01:16:01;;;;;;;3.30;2.33;;;;;;;;;;5007615;28;20030;-69
2022/08/29 01:18:30;;;;;;;3.35;2.20;;;;;;;;;;5007330;28;20030;-71
2022/08/29 01:21:15;;;;;;;6.47;2.42;;;;;;;;;;5007518;28;20034;-71
2022/08/29 01:23:43;;;;;;;4.07;2.30;;;;;;;;;;5007368;28;20025;-69
2022/08/29 01:26:10;;;;;;;3.17;2.20;;;;;;;;;;5007373;28;20037;-71
2022/08/29 01:28:42;;;;;;;3.17;2.33;;;;;;;;;;5006983;28;20037;-71
2022/08/29 01:31:11;;;;;;;3.10;2.20;;;;;;;;;;5007400;28;20131;-70
2022/08/29 01:33:48;;;;;;;4.35;2.28;;;;;;;;;;5007585;28;20046;-69
2022/08/29 01:36:20;;;;;;;3.47;2.30;;;;;;;;;;5007325;28;20033;-71
2022/08/29 01:38:46;;;;;;;4.07;2.30;;;;;;;;;;4989309;28;20623;-70
2022/08/29 01:41:13;;;;;;;5.07;2.20;;;;;;;;;;5007035;28;20182;-70
2022/08/29 01:43:47;;;;;;;4.70;2.20;;;;;;;;;;5006888;28;20552;-71
2022/08/29 01:46:15;;;;;;;3.97;2.40;;;;;;;;;;5007056;28;20034;-71
2022/08/29 01:48:42;;;;;;;3.92;2.35;;;;;;;;;;5006985;28;20113;-71
2022/08/29 01:51:09;;;;;;;3.38;2.30;;;;;;;;;;5007057;28;20037;-71
2022/08/29 01:53:35;;;;;;;4.53;2.50;;;;;;;;;;5007240;28;20026;-72
2022/08/29 01:56:15;;;;;;;2.85;2.15;;;;;;;;;;5006943;28;20424;-72
2022/08/29 01:58:43;;;;;;;3.40;2.30;;;;;;;;;;5006783;28;20482;-71
2022/08/29 02:01:11;;;;;;;5.20;2.10;;;;;;;;;;5006901;28;20456;-71
2022/08/29 02:03:37;;;;;;;3.63;2.10;;;;;;;;;;5006962;28;20018;-71
2022/08/29 02:06:02;;;;;;;5.75;2.65;;;;;;;;;;5006992;28;20102;-71
2022/08/29 02:08:29;;;;;;;3.83;2.22;;;;;;;;;;5006907;28;20110;-71
2022/08/29 02:10:55;;;;;;;5.03;2.30;;;;;;;;;;5006773;28;20033;-70
2022/08/29 02:13:23;;;;;;;3.42;2.30;;;;;;;;;;5006786;28;20014;-71
2022/08/29 02:15:49;;;;;;;4.43;2.20;;;;;;;;;;5006988;28;20030;-71
2022/08/29 02:18:14;;;;;;;3.08;2.25;;;;;;;;;;5006570;28;20052;-71
2022/08/29 02:20:40;;;;;;;3.38;2.30;;;;;;;;;;5006804;28;20028;-69
2022/08/29 02:23:05;;;;;;;4.47;2.10;;;;;;;;;;5007620;28;20457;-71
2022/08/29 02:25:43;;;;;;;4.80;2.30;;;;;;;;;;5010155;28;20523;-71
2022/08/29 02:28:14;;;;;;;4.07;2.30;;;;;;;;;;5010051;28;20050;-72
2022/08/29 02:30:47;;;;;;;5.15;2.50;;;;;;;;;;4992589;28;20037;-71
2022/08/29 02:33:14;;;;;;;3.70;2.30;;;;;;;;;;5009839;28;20029;-71
2022/08/29 02:35:39;;;;;;;7.05;2.40;;;;;;;;;;5010098;28;20030;-71
2022/08/29 02:38:05;;;;;;;3.50;2.30;;;;;;;;;;5009911;28;20036;-71
2022/08/29 02:40:31;;;;;;;3.22;2.38;;;;;;;;;;5009554;28;20103;-71
2022/08/29 02:42:57;;;;;;;4.72;2.28;;;;;;;;;;5009893;28;20025;-71
2022/08/29 02:45:23;;;;;;;4.72;2.40;;;;;;;;;;5009717;28;20034;-69
2022/08/29 02:47:49;;;;;;;3.28;2.38;;;;;;;;;;5009767;28;20086;-67
2022/08/29 02:50:15;;;;;;;3.03;2.13;;;;;;;;;;5009462;28;20357;-68
2022/08/29 02:52:42;;;;;;;4.93;2.33;;;;;;;;;;5009822;28;20014;-69
2022/08/29 02:55:09;;;;;;;3.45;2.30;;;;;;;;;;5009578;28;20026;-69
2022/08/29 02:57:35;;;;;;;5.30;2.42;;;;;;;;;;5009177;28;20041;-68
2022/08/29 03:00:00;;;;;;;3.67;2.20;;;;;;;;;;4991877;28;20022;-68
2022/08/29 03:02:26;;;;;;;6.65;2.33;;;;;;;;;;5009524;28;20026;-69
2022/08/29 03:04:52;;;;;;;4.90;2.70;;;;;;;;;;5009604;28;20022;-69
2022/08/29 03:07:17;;;;;;;4.68;2.50;;;;;;;;;;5009457;28;20030;-70
2022/08/29 03:09:43;;;;;;;2.95;2.38;;;;;;;;;;5009161;28;20526;-68
2022/08/29 03:12:08;;;;;;;4.65;2.35;;;;;;;;;;5009191;28;20529;-68
2022/08/29 03:14:33;;;;;;;2.92;2.15;;;;;;;;;;5009431;28;20026;-68
2022/08/29 03:16:59;;;;;;;4.30;2.42;;;;;;;;;;5009216;28;20481;-68
2022/08/29 03:19:25;;;;;;;3.95;2.50;;;;;;;;;;5009182;28;20029;-67
2022/08/29 03:21:50;;;;;;;3.28;2.38;;;;;;;;;;5009366;28;20109;-68
2022/08/29 03:24:16;;;;;;;3.78;2.30;;;;;;;;;;5009266;28;20117;-67
2022/08/29 03:26:41;;;;;;;3.85;2.25;;;;;;;;;;5009067;28;20022;-68
2022/08/29 03:29:06;;;;;;;4.00;2.50;;;;;;;;;;5008627;28;20040;-68
2022/08/29 03:31:32;;;;;;;3.47;2.50;;;;;;;;;;5009039;28;20621;-69
2022/08/29 03:33:57;;;;;;;5.60;2.40;;;;;;;;;;5009069;28;20030;-70
2022/08/29 03:36:25;;;;;;;5.30;2.47;;;;;;;;;;5008290;28;20029;-71
2022/08/29 03:38:51;;;;;;;3.97;2.38;;;;;;;;;;4991309;28;20036;-70
2022/08/29 03:41:26;;;;;;;3.63;2.40;;;;;;;;;;5008846;28;20097;-69
2022/08/29 03:43:54;;;;;;;4.47;2.42;;;;;;;;;;5008611;28;20075;-68
2022/08/29 03:46:19;;;;;;;3.28;2.50;;;;;;;;;;5008661;28;20034;-70
2022/08/29 03:48:45;;;;;;;2.92;2.35;;;;;;;;;;5008997;28;20025;-68
2022/08/29 03:51:10;;;;;;;3.28;2.40;;;;;;;;;;5008728;28;20432;-69
2022/08/29 03:53:35;;;;;;;5.30;2.90;;;;;;;;;;5008798;28;20026;-68
2022/08/29 03:56:02;;;;;;;3.70;2.80;;;;;;;;;;5008936;28;20110;-68
2022/08/29 03:58:28;;;;;;;4.22;2.50;;;;;;;;;;5008605;28;20029;-68
2022/08/29 04:00:53;;;;;;;3.38;2.50;;;;;;;;;;5008273;28;20026;-69
2022/08/29 04:03:19;;;;;;;3.80;2.45;;;;;;;;;;5008511;28;20033;-68
2022/08/29 04:05:44;;;;;;;4.05;2.70;;;;;;;;;;5008840;28;20067;-68
2022/08/29 04:08:10;;;;;;;5.72;2.65;;;;;;;;;;5008492;28;20030;-67
2022/08/29 04:10:37;;;;;;;5.10;2.50;;;;;;;;;;4990726;28;20030;-68
2022/08/29 04:13:04;;;;;;;4.80;2.50;;;;;;;;;;5008506;28;20374;-68
2022/08/29 04:15:31;;;;;;;3.03;2.40;;;;;;;;;;5008428;28;20030;-70
2022/08/29 04:17:59;;;;;;;3.72;2.53;;;;;;;;;;5008315;28;20116;-70
2022/08/29 04:20:27;;;;;;;3.75;2.45;;;;;;;;;;5008085;28;20393;-68
2022/08/29 04:22:55;;;;;;;3.03;2.40;;;;;;;;;;5008292;28;20119;-68
2022/08/29 04:25:21;;;;;;;3.58;2.50;;;;;;;;;;5008203;28;20041;-68
2022/08/29 04:27:48;;;;;;;3.03;2.30;;;;;;;;;;5008144;28;20034;-68
2022/08/29 04:30:16;;;;;;;3.65;2.67;;;;;;;;;;5008130;28;20540;-68
2022/08/29 04:32:41;;;;;;;4.75;2.70;;;;;;;;;;5008170;28;20631;-68
2022/08/29 04:35:08;;;;;;;5.22;2.70;;;;;;;;;;5008049;28;20026;-70
2022/08/29 04:37:34;;;;;;;4.30;2.40;;;;;;;;;;5007871;28;20038;-70
2022/08/29 04:40:00;;;;;;;5.70;2.80;;;;;;;;;;5007691;28;20030;-70
2022/08/29 04:42:26;;;;;;;3.40;2.60;;;;;;;;;;5007882;28;20101;-70
2022/08/29 04:44:51;;;;;;;5.55;2.70;;;;;;;;;;5007942;28;20125;-70
2022/08/29 04:47:20;;;;;;;4.15;2.67;;;;;;;;;;5006870;28;20030;-70
2022/08/29 04:49:45;;;;;;;4.28;2.85;;;;;;;;;;5007883;28;20058;-69
2022/08/29 04:52:12;;;;;;;4.35;2.70;;;;;;;;;;5007899;28;20122;-69
2022/08/29 04:54:38;;;;;;;5.07;3.20;;;;;;;;;;5007865;28;20022;-70
2022/08/29 04:57:03;;;;;;;5.63;2.80;;;;;;;;;;5007426;28;20095;-70
2022/08/29 04:59:29;;;;;;;4.80;2.50;;;;;;;;;;5007664;28;20026;-69
2022/08/29 05:01:55;;;;;;;5.40;2.70;;;;;;;;;;5007664;28;20018;-68
2022/08/29 05:04:20;;;;;;;5.05;2.78;;;;;;;;;;5007726;28;20807;-68
2022/08/29 05:06:46;;;;;;;4.80;3.03;;;;;;;;;;5007705;28;20042;-70
2022/08/29 05:09:11;;;;;;;6.65;2.72;;;;;;;;;;5007550;28;20048;-71
2022/08/29 05:11:38;;;;;;;5.90;3.00;;;;;;;;;;4989547;28;20083;-70
2022/08/29 05:14:04;;;;;;;3.78;2.70;;;;;;;;;;5007421;28;20469;-71
2022/08/29 05:16:30;;;;;;;7.18;2.70;;;;;;;;;;5007315;28;20072;-70
2022/08/29 05:18:58;;;;;;;4.32;2.70;;;;;;;;;;5007579;28;20025;-71
2022/08/29 05:21:31;;;;;;;4.45;2.95;;;;;;;;;;5007230;28;20032;-71
2022/08/29 05:23:57;;;;;;;5.00;2.95;;;;;;;;;;5007652;28;20061;-70
2022/08/29 05:26:24;;;;;;;6.28;2.80;;;;;;;;;;5007404;28;20536;-69
2022/08/29 05:28:50;;;;;;;5.10;2.78;;;;;;;;;;5007155;28;20025;-70
2022/08/29 05:31:16;;;;;;;6.07;2.83;;;;;;;;;;5007036;28;20026;-71
2022/08/29 05:33:41;;;;;;;6.32;3.25;;;;;;;;;;5007278;28;20032;-70
2022/08/29 05:36:07;;;;;;;5.18;2.78;;;;;;;;;;5007062;28;20054;-70
2022/08/29 05:38:33;;;;;;;5.32;3.05;;;;;;;;;;5007346;28;20552;-71
2022/08/29 05:41:00;;;;;;;6.07;3.03;;;;;;;;;;5006912;28;20078;-71
2022/08/29 05:43:25;;;;;;;5.70;2.55;;;;;;;;;;5007145;28;20041;-71
2022/08/29 05:46:00;;;;;;;5.05;2.72;;;;;;;;;;5007094;28;20240;-72
2022/08/29 05:48:26;;;;;;;5.80;2.70;;;;;;;;;;5007112;28;20022;-71
2022/08/29 05:50:51;;;;;;;5.45;2.80;;;;;;;;;;5006734;28;20022;-71
2022/08/29 05:53:18;;;;;;;4.57;2.80;;;;;;;;;;5006818;28;20030;-71
2022/08/29 05:55:44;;;;;;;7.35;2.90;;;;;;;;;;5007126;28;20022;-69
2022/08/29 05:58:10;;;;;;;5.40;2.70;;;;;;;;;;5007860;28;20026;-71
2022/08/29 06:00:38;;;;;;;5.15;2.97;;;;;;;;;;5010418;28;20506;-71
2022/08/29 06:03:03;;;;;;;9.65;2.83;;;;;;;;;;5010444;28;20048;-69
2022/08/29 06:05:29;;;;;;;10.40;3.03;;;;;;;;;;5010290;28;20385;-70
2022/08/29 06:07:54;;;;;;;12.15;3.33;;;;;;;;;;5010195;28;20113;-70
2022/08/29 06:10:20;;;;;;;13.10;2.97;;;;;;;;;;4992406;28;20022;-72
2022/08/29 06:12:45;;;;;;;8.75;2.92;;;;;;;;;;5010231;28;20595;-70
2022/08/29 06:15:10;;;;;;;10.20;2.80;;;;;;;;;;5010488;28;20436;-71
2022/08/29 06:17:36;;;;;;;7.32;2.63;;;;;;;;;;5010174;28;20025;-71
2022/08/29 06:20:07;;;;;;;10.85;2.70;;;;;;;;;;5010264;28;20033;-72
2022/08/29 06:22:34;;;;;;;9.18;2.88;;;;;;;;;;5009829;28;20026;-70
2022/08/29 06:25:00;;;;;;;6.43;2.50;;;;;;;;;;5010000;28;20022;-73
2022/08/29 06:27:25;;;;;;;3.78;2.67;;;;;;;;;;5009940;28;20389;-70
2022/08/29 06:29:51;;;;;;;6.18;2.70;;;;;;;;;;5009998;28;20018;-70
2022/08/29 06:32:16;;;;;;;6.68;2.88;;;;;;;;;;5009883;28;20114;-74
2022/08/29 06:34:42;;;;;;;4.55;2.70;;;;;;;;;;5009847;28;20105;-70
2022/08/29 06:37:07;;;;;;;7.65;2.90;;;;;;;;;;5009785;28;20037;-72
2022/08/29 06:39:36;;;;;;;5.50;2.85;;;;;;;;;;5009770;28;20021;-68
2022/08/29 06:42:03;;;;;;;5.45;2.95;;;;;;;;;;5009496;28;20645;-69
2022/08/29 06:44:30;;;;;;;6.40;2.88;;;;;;;;;;5009549;28;20046;-70
2022/08/29 06:46:56;;;;;;;6.60;3.03;;;;;;;;;;5009750;28;20504;-68
2022/08/29 06:49:21;;;;;;;7.03;3.05;;;;;;;;;;5009743;28;20052;-70
2022/08/29 06:51:49;;;;;;;6.93;2.78;;;;;;;;;;5009551;28;20497;-68
2022/08/29 06:54:18;;;;;;;7.57;3.10;;;;;;;;;;5009706;28;20041;-72
2022/08/29 06:56:45;;;;;;;7.00;3.17;;;;;;;;;;4991954;28;20034;-69
2022/08/29 06:59:10;;;;;;;9.48;3.30;;;;;;;;;;5009397;28;20025;-68
2022/08/29 07:01:36;;;;;;;6.45;3.08;;;;;;;;;;5009238;28;20034;-68
2022/08/29 07:04:02;;;;;;;6.95;3.20;;;;;;;;;;5009475;28;20417;-68
2022/08/29 07:06:27;;;;;;;6.80;3.00;;;;;;;;;;5009609;28;20070;-68
2022/08/29 07:08:53;;;;;;;5.07;3.25;;;;;;;;;;5009359;28;20022;-68
2022/08/29 07:11:18;;;;;;;4.90;2.97;;;;;;;;;;5008353;28;20100;-69
2022/08/29 07:13:44;;;;;;;5.85;3.10;;;;;;;;;;5008854;28;20389;-69
2022/08/29 07:16:13;;;;;;;7.95;3.20;;;;;;;;;;5009009;28;20029;-69
2022/08/29 07:18:39;;;;;;;6.68;3.10;;;;;;;;;;5009197;28;20049;-68
2022/08/29 07:21:09;;;;;;;9.18;3.90;;;;;;;;;;5008940;28;20049;-71
2022/08/29 07:23:35;;;;;;;;;;;;;;;;;;5009645;28;20022;-72
2022/08/29 07:26:13;;;;;;;6.38;2.83;;;;;;;;;;5009269;28;19920;-72
2022/08/29 07:28:38;;;;;;;7.65;3.35;;;;;;;;;;5009089;28;20034;-72
2022/08/29 07:31:05;;;;;;;7.97;3.15;;;;;;;;;;5008760;28;20406;-72
2022/08/29 07:33:31;;;;;;;6.50;3.25;;;;;;;;;;4991279;28;20432;-72
2022/08/29 07:35:57;;;;;;;9.88;3.00;;;;;;;;;;5007441;28;20052;-74
2022/08/29 07:38:23;;;;;;;5.40;3.15;;;;;;;;;;4991038;28;20588;-73
2022/08/29 07:41:00;;;;;;;5.68;3.03;;;;;;;;;;5008623;28;20033;-74
2022/08/29 07:43:25;;;;;;;6.90;2.80;;;;;;;;;;4987575;28;20486;-73
2022/08/29 07:45:51;;;;;;;6.72;2.80;;;;;;;;;;4989309;28;20033;-71
2022/08/29 07:48:17;;;;;;;4.90;2.80;;;;;;;;;;4989132;28;20045;-71
2022/08/29 07:50:42;;;;;;;6.18;3.00;;;;;;;;;;4988987;28;20398;-73
2022/08/29 07:53:08;;;;;;;4.25;2.80;;;;;;;;;;4988930;28;20583;-74
2022/08/29 07:55:33;;;;;;;6.57;3.00;;;;;;;;;;4989118;28;20049;-78
2022/08/29 07:57:58;;;;;;;4.25;3.13;;;;;;;;;;4988947;28;20030;-77
2022/08/29 08:00:24;;;;;;;6.80;3.03;;;;;;;;;;4989004;28;20030;-77
2022/08/29 08:02:50;;;;;;;8.35;2.97;;;;;;;;;;4987573;28;20060;-76
2022/08/29 08:05:16;;;;;;;7.35;3.10;;;;;;;;;;4988960;28;20022;-76
2022/08/29 08:07:41;;;;;;;5.45;2.63;;;;;;;;;;4988835;28;20069;-76
2022/08/29 08:10:07;;;;;;;6.13;2.80;;;;;;;;;;4987308;28;20029;-74
2022/08/29 08:12:33;;;;;;;5.80;2.67;;;;;;;;;;4988662;28;20126;-76
2022/08/29 08:14:59;;;;;;;8.05;2.92;;;;;;;;;;4988896;28;20101;-74
2022/08/29 08:17:25;;;;;;;6.10;2.70;;;;;;;;;;4988716;28;20041;-74
2022/08/29 08:19:50;;;;;;;7.93;2.90;;;;;;;;;;4988945;28;20022;-73
2022/08/29 08:22:15;;;;;;;8.63;2.60;;;;;;;;;;4988215;28;20398;-73
2022/08/29 08:24:41;;;;;;;9.30;3.00;;;;;;;;;;4987289;28;20458;-72
2022/08/29 08:27:06;;;;;;;5.15;2.58;;;;;;;;;;4988255;28;20030;-72
2022/08/29 08:29:32;;;;;;;5.00;2.55;;;;;;;;;;4988597;28;20100;-74
2022/08/29 08:31:58;;;;;;;5.65;2.90;;;;;;;;;;4988442;28;20026;-73
2022/08/29 08:34:25;;;;;;;5.45;2.63;;;;;;;;;;4988490;28;20052;-74
2022/08/29 08:36:50;;;;;;;6.18;2.50;;;;;;;;;;4988553;28;20042;-72
2022/08/29 08:39:16;;;;;;;7.15;2.63;;;;;;;;;;4988513;28;20067;-73
2022/08/29 08:41:54;;;;;;;4.85;2.30;;;;;;;;;;4987983;28;20109;-72
2022/08/29 08:44:23;;;;;;;4.75;2.20;;;;;;;;;;5001108;28;20142;-73
2022/08/29 08:46:57;;;;;;;4.05;2.40;;;;;;;;;;5007779;28;20026;-71
2022/08/29 08:49:44;;;;;;;5.03;2.75;;;;;;;;;;5007771;28;20626;-72
2022/08/29 08:52:15;;;;;;;6.50;2.50;;;;;;;;;;5007665;28;20538;-72
2022/08/29 08:54:56;;;;;;;5.05;2.60;;;;;;;;;;5007809;28;20466;-71
2022/08/29 08:57:25;;;;;;;6.80;2.63;;;;;;;;;;5007594;28;20029;-71
2022/08/29 08:59:57;;;;;;;7.13;2.60;;;;;;;;;;5007457;28;20156;-71
2022/08/29 09:02:58;;;;;;;4.68;2.30;;;;;;;;;;5007406;28;20417;-71
2022/08/29 09:05:33;;;;;;;3.83;2.50;;;;;;;;;;5007587;28;20026;-72
2022/08/29 09:08:28;;;;;;;7.10;2.70;;;;;;;;;;5007671;28;20034;-71
2022/08/29 09:11:02;;;;;;;4.10;2.50;;;;;;;;;;5007552;28;20033;-71
2022/08/29 09:13:58;;;;;;;7.82;2.40;;;;;;;;;;5007162;28;20112;-72
2022/08/29 09:16:29;;;;;;;5.18;2.30;;;;;;;;;;5007330;28;20142;-71
2022/08/29 09:19:00;;;;;;;4.90;2.58;;;;;;;;;;5007307;28;20036;-72
2022/08/29 09:21:26;;;;;;;5.78;2.63;;;;;;;;;;5007220;28;20030;-70
2022/08/29 09:23:58;;;;;;;6.90;2.65;;;;;;;;;;5007279;28;20052;-71
2022/08/29 09:26:26;;;;;;;3.90;2.53;;;;;;;;;;5007269;28;20022;-71
2022/08/29 09:28:52;;;;;;;5.25;2.58;;;;;;;;;;5007339;28;20052;-71
2022/08/29 09:31:18;;;;;;;6.28;2.30;;;;;;;;;;5007243;28;20041;-71
2022/08/29 09:33:52;;;;;;;5.78;2.50;;;;;;;;;;5006225;28;20037;-71
2022/08/29 09:36:45;;;;;;;3.70;2.35;;;;;;;;;;5007101;28;20040;-71
2022/08/29 09:39:22;;;;;;;6.82;2.63;;;;;;;;;;5007115;28;20069;-71
2022/08/29 09:41:53;;;;;;;6.75;2.45;;;;;;;;;;5006963;28;20592;-72
2022/08/29 09:44:30;;;;;;;6.22;2.55;;;;;;;;;;5007078;28;20134;-71
2022/08/29 09:47:07;;;;;;;5.18;2.45;;;;;;;;;;5007156;28;20037;-73
2022/08/29 09:49:36;;;;;;;4.13;2.08;;;;;;;;;;5007288;28;20061;-73
2022/08/29 09:52:16;;;;;;;7.88;2.22;;;;;;;;;;5006820;28;20196;-73
2022/08/29 09:54:43;;;;;;;8.63;2.30;;;;;;;;;;5006799;28;20041;-72
2022/08/29 09:57:19;;;;;;;5.22;2.40;;;;;;;;;;5006714;28;20037;-72
2022/08/29 10:00:04;;;;;;;6.00;2.35;;;;;;;;;;5006994;28;20045;-72
2022/08/29 10:02:55;;;;;;;7.72;2.50;;;;;;;;;;5006368;28;20018;-72
2022/08/29 10:05:40;;;;;;;5.63;2.38;;;;;;;;;;5006362;28;20117;-72
2022/08/29 10:08:23;;;;;;;5.00;1.90;;;;;;;;;;5006879;28;20505;-72
2022/08/29 10:10:55;;;;;;;6.38;2.10;;;;;;;;;;5006724;28;20022;-72
2022/08/29 10:13:36;;;;;;;6.63;2.22;;;;;;;;;;5006447;28;20032;-72
2022/08/29 10:16:20;;;;;;;4.82;2.08;;;;;;;;;;5006726;28;20030;-72
2022/08/29 10:18:52;;;;;;;3.75;1.85;;;;;;;;;;5006886;28;20050;-71
2022/08/29 10:21:46;;;;;;;6.43;2.10;;;;;;;;;;5006714;28;20079;-72
2022/08/29 10:24:17;;;;;;;4.88;2.08;;;;;;;;;;5006135;28;20042;-71
2022/08/29 10:27:07;;;;;;;4.80;2.05;;;;;;;;;;5006515;28;20071;-72
2022/08/29 10:29:38;;;;;;;;;;;;;;;;;;5006911;28;20105;-71
2022/08/29 10:32:24;;;;;;;6.13;2.28;;;;;;;;;;5006495;28;20373;-72
2022/08/29 10:34:58;;;;;;;8.88;2.10;;;;;;;;;;4987117;28;20112;-71
2022/08/29 10:37:46;;;;;;;8.70;2.33;;;;;;;;;;4987071;28;20037;-71
2022/08/29 10:40:23;;;;;;;4.15;1.80;;;;;;;;;;4986886;28;20429;-72
2022/08/29 10:42:52;;;;;;;4.68;2.00;;;;;;;;;;4986697;28;20030;-72
2022/08/29 10:45:49;;;;;;;5.28;2.47;;;;;;;;;;4987916;28;20042;-71
2022/08/29 10:48:33;;;;;;;5.53;2.30;;;;;;;;;;4989999;28;20046;-71
2022/08/29 10:51:06;;;;;;;4.72;2.25;;;;;;;;;;4989933;28;20026;-71
2022/08/29 10:53:37;;;;;;;10.10;2.30;;;;;;;;;;4989956;28;20026;-72
2022/08/29 10:56:21;;;;;;;7.28;2.45;;;;;;;;;;4990319;28;20035;-73
2022/08/29 10:59:01;;;;;;;7.22;2.20;;;;;;;;;;4989797;28;20058;-70
2022/08/29 11:01:36;;;;;;;;;;;;;;;;;;4990234;28;20531;-70
2022/08/29 11:04:16;;;;;;;7.43;2.30;;;;;;;;;;4989541;28;19925;-70
2022/08/29 11:07:10;;;;;;;5.47;2.42;;;;;;;;;;4989800;28;20062;-70
2022/08/29 11:10:04;;;;;;;6.40;2.10;;;;;;;;;;4989718;28;20111;-71
2022/08/29 11:12:44;;;;;;;6.47;2.10;;;;;;;;;;4989634;28;20026;-70
2022/08/29 11:15:27;;;;;;;6.57;2.20;;;;;;;;;;4990070;28;20050;-70
2022/08/29 11:18:32;;;;;;;5.57;2.10;;;;;;;;;;4989648;28;20478;-70
2022/08/29 11:21:07;;;;;;;8.32;2.47;;;;;;;;;;4986906;28;20516;-71
2022/08/29 11:23:38;;;;;;;6.43;2.30;;;;;;;;;;4989312;28;20113;-70
2022/08/29 11:26:22;;;;;;;6.05;2.25;;;;;;;;;;4989604;28;20033;-70
2022/08/29 11:28:59;;;;;;;5.07;2.15;;;;;;;;;;4989497;28;20037;-70
2022/08/29 11:31:33;;;;;;;7.65;2.22;;;;;;;;;;4989593;28;20099;-71
2022/08/29 11:34:17;;;;;;;5.45;2.20;;;;;;;;;;5003467;28;20086;-70
2022/08/29 11:36:58;;;;;;;4.22;2.20;;;;;;;;;;5008943;28;20496;-71
2022/08/29 11:39:33;;;;;;;11.02;2.38;;;;;;;;;;5008877;28;20082;-70
2022/08/29 11:42:02;;;;;;;8.68;2.03;;;;;;;;;;5008696;28;20026;-70
2022/08/29 11:44:34;;;;;;;4.90;2.00;;;;;;;;;;4990954;28;20046;-70
2022/08/29 11:47:00;;;;;;;11.82;2.30;;;;;;;;;;5008996;28;20042;-70
2022/08/29 11:49:32;;;;;;;2.83;1.90;;;;;;;;;;5008789;28;20034;-70
2022/08/29 11:52:07;;;;;;;5.03;1.90;;;;;;;;;;5008891;28;20022;-70
2022/08/29 11:54:35;;;;;;;5.38;2.20;;;;;;;;;;5008266;28;20583;-70
2022/08/29 11:57:01;;;;;;;5.18;2.30;;;;;;;;;;5008013;28;20113;-70
2022/08/29 11:59:48;;;;;;;3.58;2.15;;;;;;;;;;5008545;28;20573;-70
2022/08/29 12:02:31;;;;;;;4.68;2.00;;;;;;;;;;5008621;28;20555;-70
2022/08/29 12:05:15;;;;;;;9.48;2.22;;;;;;;;;;5008725;28;20029;-68
2022/08/29 12:07:58;;;;;;;9.20;2.35;;;;;;;;;;5008611;28;20482;-70
2022/08/29 12:10:28;;;;;;;6.20;2.20;;;;;;;;;;5008404;28;20085;-70
2022/08/29 12:12:55;;;;;;;3.67;2.17;;;;;;;;;;5008255;28;20026;-71
2022/08/29 12:15:30;;;;;;;10.45;2.28;;;;;;;;;;5008339;28;20030;-70
2022/08/29 12:18:23;;;;;;;4.10;1.95;;;;;;;;;;5008191;28;20034;-71
2022/08/29 12:20:54;;;;;;;9.45;2.38;;;;;;;;;;4997623;28;20528;-70
2022/08/29 12:23:26;;;;;;;4.97;2.10;;;;;;;;;;5008208;28;20522;-69
2022/08/29 12:25:53;;;;;;;3.60;1.92;;;;;;;;;;5008392;28;20549;-71
2022/08/29 12:28:29;;;;;;;6.55;1.90;;;;;;;;;;5008099;28;20026;-71
2022/08/29 12:30:58;;;;;;;7.70;2.00;;;;;;;;;;5008148;28;20114;-69
2022/08/29 12:33:26;;;;;;;4.10;1.85;;;;;;;;;;5007670;28;20516;-69
2022/08/29 12:36:10;;;;;;;5.88;1.92;;;;;;;;;;5007960;28;20033;-69
2022/08/29 12:38:49;;;;;;;6.82;2.15;;;;;;;;;;4990436;28;20041;-73
2022/08/29 12:41:41;;;;;;;5.30;2.22;;;;;;;;;;5008538;28;20026;-73
2022/08/29 12:44:12;;;;;;;5.68;2.00;;;;;;;;;;5007662;28;20618;-72
2022/08/29 12:46:40;;;;;;;7.63;2.10;;;;;;;;;;5007950;28;20429;-71
2022/08/29 12:49:31;;;;;;;5.07;1.90;;;;;;;;;;5007845;28;20671;-72
2022/08/29 12:52:04;;;;;;;5.38;1.90;;;;;;;;;;5007842;28;20030;-71
2022/08/29 12:54:31;;;;;;;5.00;2.08;;;;;;;;;;5007514;28;20478;-77
2022/08/29 12:56:58;;;;;;;6.85;2.28;;;;;;;;;;5007686;28;20653;-75
2022/08/29 12:59:23;;;;;;;6.13;2.03;;;;;;;;;;5007725;28;20030;-71
2022/08/29 13:01:51;;;;;;;5.65;2.08;;;;;;;;;;5007717;28;20030;-72
2022/08/29 13:04:20;;;;;;;7.65;2.20;;;;;;;;;;5007550;28;20033;-72
2022/08/29 13:06:54;;;;;;;8.20;2.10;;;;;;;;;;5007448;28;20033;-72
2022/08/29 13:09:36;;;;;;;11.38;2.15;;;;;;;;;;5006902;28;20030;-71
2022/08/29 13:12:09;;;;;;;4.32;2.10;;;;;;;;;;5007306;28;20033;-72
2022/08/29 13:14:53;;;;;;;7.20;2.50;;;;;;;;;;5007409;28;20112;-71
2022/08/29 13:17:30;;;;;;;5.47;2.53;;;;;;;;;;5007539;28;20037;-72
2022/08/29 13:20:33;;;;;;;4.90;2.60;;;;;;;;;;5007736;28;20026;-72
2022/08/29 13:23:10;;;;;;;9.05;2.40;;;;;;;;;;5007281;28;20029;-71
2022/08/29 13:25:54;;;;;;;3.70;2.38;;;;;;;;;;5007270;28;20095;-73
2022/08/29 13:28:21;;;;;;;5.82;2.58;;;;;;;;;;5007209;28;20022;-72
2022/08/29 13:31:10;;;;;;;4.40;2.60;;;;;;;;;;5007474;28;20046;-72
2022/08/29 13:33:45;;;;;;;8.63;2.83;;;;;;;;;;5007169;28;20508;-72
2022/08/29 13:36:25;;;;;;;8.45;2.90;;;;;;;;;;5007331;28;20033;-72
2022/08/29 13:39:16;;;;;;;5.07;3.00;;;;;;;;;;5007309;28;20030;-72
2022/08/29 13:42:07;;;;;;;7.85;2.97;;;;;;;;;;5006812;28;20030;-72
2022/08/29 13:44:35;;;;;;;6.20;3.17;;;;;;;;;;5006407;28;20069;-72
2022/08/29 13:47:10;;;;;;;5.13;3.30;;;;;;;;;;5007319;28;20117;-72
2022/08/29 13:49:36;;;;;;;3.90;2.88;;;;;;;;;;5007213;28;20029;-72
2022/08/29 13:52:03;;;;;;;6.65;2.72;;;;;;;;;;5007255;28;20022;-73
2022/08/29 13:54:31;;;;;;;5.57;2.83;;;;;;;;;;5006842;28;20034;-72
2022/08/29 13:56:57;;;;;;;6.63;3.20;;;;;;;;;;5006761;28;20026;-73
2022/08/29 13:59:26;;;;;;;7.93;3.30;;;;;;;;;;5006648;28;20425;-72
2022/08/29 14:01:52;;;;;;;7.05;3.10;;;;;;;;;;5006780;28;20022;-72
2022/08/29 14:04:17;;;;;;;6.82;2.95;;;;;;;;;;5006836;28;20417;-73
2022/08/29 14:06:44;;;;;;;7.13;3.05;;;;;;;;;;5007105;28;20033;-73
2022/08/29 14:09:14;;;;;;;6.50;2.70;;;;;;;;;;5006914;28;20018;-72
2022/08/29 14:11:40;;;;;;;4.93;2.70;;;;;;;;;;5006883;28;20033;-72
2022/08/29 14:14:05;;;;;;;4.82;2.42;;;;;;;;;;5006511;28;20030;-72
2022/08/29 14:16:30;;;;;;;10.52;2.63;;;;;;;;;;5006629;28;20113;-72
2022/08/29 14:18:56;;;;;;;6.55;2.70;;;;;;;;;;5007344;28;20033;-73
2022/08/29 14:21:21;;;;;;;6.05;2.58;;;;;;;;;;5010173;28;20034;-73
2022/08/29 14:23:47;;;;;;;5.88;2.90;;;;;;;;;;5010076;28;20090;-73
2022/08/29 14:26:13;;;;;;;5.05;2.60;;;;;;;;;;5010062;28;20022;-73
2022/08/29 14:28:38;;;;;;;8.40;2.80;;;;;;;;;;5009984;28;20114;-73
2022/08/29 14:31:04;;;;;;;6.15;2.70;;;;;;;;;;5010097;28;20030;-73
2022/08/29 14:33:29;;;;;;;7.38;2.67;;;;;;;;;;5009802;28;20109;-72
2022/08/29 14:35:55;;;;;;;5.63;2.60;;;;;;;;;;5009849;28;20059;-72
2022/08/29 14:38:20;;;;;;;6.00;2.72;;;;;;;;;;5009732;28;20030;-73
2022/08/29 14:40:45;;;;;;;6.78;2.90;;;;;;;;;;5009942;28;20059;-73
2022/08/29 14:43:11;;;;;;;4.47;2.83;;;;;;;;;;5009491;28;20038;-73
2022/08/29 14:45:37;;;;;;;5.20;2.58;;;;;;;;;;5009706;28;20025;-73
2022/08/29 14:48:04;;;;;;;4.22;2.70;;;;;;;;;;5009905;28;20092;-72
2022/08/29 14:50:30;;;;;;;4.43;2.70;;;;;;;;;;5009948;28;20030;-72
2022/08/29 14:52:55;;;;;;;5.22;2.72;;;;;;;;;;5008256;28;20084;-72
2022/08/29 14:55:20;;;;;;;4.60;2.45;;;;;;;;;;5007632;28;20045;-71
2022/08/29 14:57:46;;;;;;;9.20;2.60;;;;;;;;;;5007777;28;20101;-70
2022/08/29 15:00:19;;;;;;;5.60;2.45;;;;;;;;;;5007815;28;20038;-71
2022/08/29 15:02:45;;;;;;;8.05;2.50;;;;;;;;;;5008056;28;20018;-71
2022/08/29 15:05:11;;;;;;;3.63;2.22;;;;;;;;;;5007774;28;20071;-71